Time;durP1;ratioP1;P1;durP2;ratioP2;P2;SDS_P1;SDS_P2;PMS_P1;PMS_P2;Temp;Humidity;BMP_temperature;BMP_pressure;BME280_temperature;BME280_humidity;BME280_pressure;Samples;Min_cycle;Max_cycle;Signal;HPM_P1;HPM_P2
2021/11/18 00:00:53;;;;;;;0.10;0.10;;;;;;;6.62;80.21;99702.66;5112877;28;20044;-75
2021/11/18 00:03:19;;;;;;;0.00;0.00;;;;;;;6.60;80.50;99711.91;5114737;28;20028;-87
2021/11/18 00:05:45;;;;;;;0.00;0.00;;;;;;;6.51;80.13;99701.63;5112976;28;20038;-83
2021/11/18 00:08:12;;;;;;;0.00;0.00;;;;;;;6.51;80.34;99714.91;5113282;28;20035;-77
2021/11/18 00:10:42;;;;;;;0.00;0.00;;;;;;;6.49;80.49;99709.00;5113638;28;20047;-83
2021/11/18 00:13:10;;;;;;;0.00;0.00;;;;;;;6.46;79.48;99713.97;5112939;28;20033;-83
2021/11/18 00:15:37;;;;;;;0.00;0.00;;;;;;;6.38;79.94;99708.00;5113768;28;20032;-82
2021/11/18 00:18:08;;;;;;;0.00;0.00;;;;;;;6.33;79.80;99712.38;5113533;28;20430;-83
2021/11/18 00:20:39;;;;;;;0.00;0.00;;;;;;;6.33;80.18;99712.38;5107762;28;20028;-83
2021/11/18 00:23:05;;;;;;;0.00;0.00;;;;;;;6.27;80.09;99710.66;5112570;28;20035;-88
2021/11/18 00:25:31;;;;;;;0.00;0.00;;;;;;;6.26;79.64;99712.47;5109035;28;20027;-87
2021/11/18 00:27:57;;;;;;;0.00;0.00;;;;;;;6.24;79.47;99719.91;5113352;28;20130;-85
2021/11/18 00:30:23;;;;;;;0.00;0.00;;;;;;;6.17;79.57;99712.03;5113579;28;20482;-82
2021/11/18 00:32:49;;;;;;;0.00;0.00;;;;;;;6.04;80.19;99701.63;5113425;28;20024;-81
2021/11/18 00:35:18;;;;;;;0.00;0.00;;;;;;;6.07;80.38;99707.28;5113136;28;20080;-82
2021/11/18 00:37:45;;;;;;;0.00;0.00;;;;;;;6.06;80.55;99708.31;5110921;28;20036;-79
2021/11/18 00:40:13;;;;;;;0.00;0.00;;;;;;;6.05;80.64;99713.88;5094269;28;20024;-79
2021/11/18 00:42:39;;;;;;;0.00;0.00;;;;;;;6.02;80.26;99709.81;5096552;28;20061;-75
2021/11/18 00:45:05;;;;;;;0.00;0.00;;;;;;;5.92;79.91;99704.25;5112552;28;20148;-81
2021/11/18 00:47:31;;;;;;;0.00;0.00;;;;;;;5.98;80.06;99711.31;5113004;28;20028;-82
2021/11/18 00:49:57;;;;;;;0.00;0.00;;;;;;;5.96;80.33;99704.56;5112784;28;20406;-83
2021/11/18 00:52:22;;;;;;;0.00;0.00;;;;;;;5.90;80.56;99701.81;5112827;28;20070;-84
2021/11/18 00:54:48;;;;;;;0.00;0.00;;;;;;;5.87;79.89;99701.44;5112441;28;20115;-77
2021/11/18 00:57:14;;;;;;;0.00;0.00;;;;;;;5.87;79.83;99706.75;5109159;28;20035;-76
2021/11/18 00:59:40;;;;;;;0.00;0.00;;;;;;;5.83;80.13;99703.75;5092303;28;20031;-76
2021/11/18 01:02:05;;;;;;;0.00;0.00;;;;;;;5.66;80.27;99677.06;5092007;28;20738;-75
2021/11/18 01:04:31;;;;;;;0.00;0.00;;;;;;;5.80;80.01;99698.91;5109669;28;20093;-77
2021/11/18 01:06:59;;;;;;;0.00;0.00;;;;;;;5.83;80.50;99700.31;5111649;28;20463;-79
2021/11/18 01:09:27;;;;;;;0.00;0.00;;;;;;;5.73;80.13;99696.34;5111451;28;20043;-75
2021/11/18 01:11:53;;;;;;;0.00;0.00;;;;;;;5.70;80.02;99702.13;5113338;28;20027;-75
2021/11/18 01:14:21;;;;;;;0.00;0.00;;;;;;;5.71;80.19;99711.72;5112283;28;20100;-76
2021/11/18 01:16:47;;;;;;;0.00;0.00;;;;;;;5.67;79.61;99709.72;5114183;27;20024;-79
2021/11/18 01:19:14;;;;;;;0.00;0.00;;;;;;;5.65;79.56;99709.16;5111891;28;20035;-81
2021/11/18 01:21:42;;;;;;;0.00;0.00;;;;;;;5.57;79.68;99705.78;5108241;28;20093;-82
2021/11/18 01:24:08;;;;;;;0.00;0.00;;;;;;;5.57;79.43;99703.13;5091851;28;20032;-82
2021/11/18 01:26:34;;;;;;;0.00;0.00;;;;;;;5.49;79.90;99698.13;5101022;28;20035;-82
2021/11/18 01:29:00;;;;;;;0.00;0.00;;;;;;;5.45;79.70;99697.78;5098716;28;20085;-78
2021/11/18 01:31:27;;;;;;;0.10;0.10;;;;;;;5.40;79.58;99692.34;5112453;28;20028;-79
2021/11/18 01:33:52;;;;;;;0.00;0.00;;;;;;;5.39;79.43;99698.69;5111567;28;20042;-77
2021/11/18 01:36:18;;;;;;;0.00;0.00;;;;;;;5.40;79.23;99694.19;5112170;28;20046;-77
2021/11/18 01:38:44;;;;;;;0.00;0.00;;;;;;;5.36;79.30;99706.28;5111691;28;20039;-75
2021/11/18 01:41:21;;;;;;;0.00;0.00;;;;;;;5.31;79.05;99700.84;5113347;28;20027;-76
2021/11/18 01:43:52;;;;;;;0.00;0.00;;;;;;;5.31;79.38;99704.31;5098008;28;20035;-76
2021/11/18 01:46:22;;;;;;;0.00;0.00;;;;;;;5.25;79.22;99705.22;5091179;28;20460;-75
2021/11/18 01:48:50;;;;;;;0.00;0.00;;;;;;;5.07;78.95;99692.81;5091518;28;20039;-78
2021/11/18 01:51:17;;;;;;;0.00;0.00;;;;;;;5.07;79.26;99696.25;5109595;28;20077;-78
2021/11/18 01:53:45;;;;;;;0.00;0.00;;;;;;;5.14;79.44;99720.03;5111690;28;20265;-75
2021/11/18 01:56:23;;;;;;;0.00;0.00;;;;;;;5.07;79.27;99704.19;5110330;28;20042;-74
2021/11/18 01:58:53;;;;;;;0.00;0.00;;;;;;;5.01;79.07;99697.13;5111719;28;20547;-78
2021/11/18 02:01:19;;;;;;;0.00;0.00;;;;;;;4.95;78.78;99698.03;5111166;28;20027;-73
2021/11/18 02:03:45;;;;;;;0.00;0.00;;;;;;;4.93;78.98;99700.09;5110985;28;20034;-73
2021/11/18 02:06:19;;;;;;;0.00;0.00;;;;;;;4.89;79.35;99701.56;5110440;28;20035;-74
2021/11/18 02:08:45;;;;;;;0.00;0.00;;;;;;;4.87;78.82;99700.97;5110746;28;20023;-74
2021/11/18 02:11:33;;;;;;;0.00;0.00;;;;;;;4.85;79.07;99698.56;5110927;28;20031;-73
2021/11/18 02:14:00;;;;;;;0.00;0.00;;;;;;;4.87;79.00;99706.28;5111047;28;20032;-73
2021/11/18 02:16:26;;;;;;;0.00;0.00;;;;;;;4.83;79.05;99695.31;5091291;28;20450;-81
2021/11/18 02:18:52;;;;;;;0.00;0.00;;;;;;;4.74;78.87;99689.50;5091578;28;20131;-80
2021/11/18 02:21:18;;;;;;;0.00;0.00;;;;;;;4.77;78.89;99696.19;5111206;28;20055;-74
2021/11/18 02:23:51;;;;;;;0.00;0.00;;;;;;;4.75;78.99;99696.44;5111249;28;20038;-75
2021/11/18 02:26:18;;;;;;;0.00;0.00;;;;;;;4.70;78.81;99692.81;5110809;28;20031;-78
2021/11/18 02:28:46;;;;;;;0.00;0.00;;;;;;;4.60;78.98;99691.50;5111157;28;20084;-77
2021/11/18 02:31:26;;;;;;;0.22;0.22;;;;;;;4.62;79.05;99693.94;5110812;28;20602;-76
2021/11/18 02:33:52;;;;;;;0.00;0.00;;;;;;;4.59;79.04;99703.13;5105270;28;20088;-78
2021/11/18 02:36:19;;;;;;;0.00;0.00;;;;;;;4.63;79.15;99714.88;5093688;28;20028;-80
2021/11/18 02:38:44;;;;;;;0.00;0.00;;;;;;;4.59;78.53;99713.72;5100184;28;20036;-76
2021/11/18 02:41:11;;;;;;;0.00;0.00;;;;;;;4.57;78.83;99717.63;5110644;28;20620;-81
2021/11/18 02:43:38;;;;;;;0.00;0.00;;;;;;;4.52;78.49;99712.97;5110772;28;20063;-78
2021/11/18 02:46:03;;;;;;;0.00;0.00;;;;;;;4.47;78.53;99708.34;5110314;28;20108;-75
2021/11/18 02:48:29;;;;;;;0.00;0.00;;;;;;;4.44;78.75;99702.66;5104691;28;20024;-76
2021/11/18 02:50:59;;;;;;;0.00;0.00;;;;;;;4.41;78.47;99713.72;5090027;28;20032;-79
2021/11/18 02:53:25;;;;;;;0.10;0.10;;;;;;;4.15;78.73;99675.84;5099284;28;20030;-83
2021/11/18 02:55:53;;;;;;;0.00;0.00;;;;;;;4.32;78.74;99713.97;5110526;28;20032;-85
2021/11/18 02:58:20;;;;;;;0.00;0.00;;;;;;;4.28;78.51;99710.13;5111091;28;20051;-85
2021/11/18 03:00:52;;;;;;;0.00;0.00;;;;;;;4.30;78.64;99713.38;5110696;28;20032;-75
2021/11/18 03:03:17;;;;;;;0.00;0.00;;;;;;;4.21;78.79;99704.13;5110243;28;20085;-78
2021/11/18 03:05:45;;;;;;;0.40;0.40;;;;;;;4.26;78.97;99711.38;5110569;28;20497;-77
2021/11/18 03:08:11;;;;;;;0.00;0.00;;;;;;;4.27;79.08;99718.31;5110047;28;20383;-80
2021/11/18 03:10:37;;;;;;;0.00;0.00;;;;;;;4.17;79.15;99697.63;5110419;28;20023;-81
2021/11/18 03:13:03;;;;;;;0.00;0.00;;;;;;;4.20;79.21;99706.97;5091044;28;20122;-81
2021/11/18 03:15:29;;;;;;;0.00;0.00;;;;;;;4.22;79.12;99705.72;5101950;28;20410;-81
2021/11/18 03:17:55;;;;;;;0.00;0.00;;;;;;;4.19;79.11;99702.69;5110066;28;20035;-79
2021/11/18 03:20:23;;;;;;;0.00;0.00;;;;;;;4.16;78.77;99703.94;5109901;28;20467;-80
2021/11/18 03:22:50;;;;;;;0.00;0.00;;;;;;;4.11;79.12;99699.31;5106052;28;20036;-81
2021/11/18 03:25:19;;;;;;;0.00;0.00;;;;;;;4.08;79.04;99693.66;5090770;28;20570;-79
2021/11/18 03:27:45;;;;;;;0.00;0.00;;;;;;;4.04;79.48;99690.63;5110245;28;20534;-79
2021/11/18 03:30:14;;;;;;;0.00;0.00;;;;;;;4.11;79.36;99709.91;5109963;28;20032;-77
2021/11/18 03:32:40;;;;;;;0.10;0.10;;;;;;;4.08;79.14;99699.72;5114102;28;20038;-76
2021/11/18 03:35:07;;;;;;;0.00;0.00;;;;;;;4.05;79.05;99710.75;5114231;28;20088;-76
2021/11/18 03:37:32;;;;;;;0.00;0.00;;;;;;;4.00;79.46;99703.47;5114870;28;20020;-78
2021/11/18 03:39:58;;;;;;;0.00;0.00;;;;;;;3.97;79.38;99701.25;5107426;28;20028;-79
2021/11/18 03:42:23;;;;;;;0.00;0.00;;;;;;;3.99;79.71;99709.78;5093870;28;20495;-78
2021/11/18 03:44:49;;;;;;;0.30;0.30;;;;;;;3.99;79.81;99716.91;5093566;28;20022;-76
2021/11/18 03:47:16;;;;;;;0.00;0.00;;;;;;;3.95;79.89;99708.59;5093572;28;20032;-78
2021/11/18 03:49:42;;;;;;;0.00;0.00;;;;;;;3.94;79.67;99712.28;5093675;28;20479;-79
2021/11/18 03:52:10;;;;;;;0.10;0.10;;;;;;;3.93;79.32;99710.66;5103736;28;20409;-77
2021/11/18 03:54:39;;;;;;;0.00;0.00;;;;;;;3.95;79.72;99705.13;5114067;28;20061;-77
2021/11/18 03:57:06;;;;;;;0.00;0.00;;;;;;;3.93;79.84;99715.13;5113446;28;20093;-82
2021/11/18 03:59:35;;;;;;;0.03;0.03;;;;;;;3.94;79.89;99712.28;5113929;28;20028;-80
2021/11/18 04:02:01;;;;;;;0.00;0.00;;;;;;;3.91;79.94;99710.06;5113588;28;20023;-76
2021/11/18 04:04:34;;;;;;;0.00;0.00;;;;;;;3.93;79.80;99713.31;5113874;28;20122;-82
2021/11/18 04:07:00;;;;;;;0.00;0.00;;;;;;;3.91;80.02;99710.06;5113379;28;20114;-76
2021/11/18 04:09:26;;;;;;;0.00;0.00;;;;;;;3.92;79.80;99716.97;5113337;28;20118;-77
2021/11/18 04:11:54;;;;;;;0.00;0.00;;;;;;;3.90;79.99;99712.91;5113562;28;20048;-76
2021/11/18 04:14:19;;;;;;;0.00;0.00;;;;;;;3.90;79.57;99715.56;5113071;28;20028;-80
2021/11/18 04:16:45;;;;;;;0.00;0.00;;;;;;;3.85;79.64;99710.91;5113641;28;20024;-80
2021/11/18 04:19:13;;;;;;;0.00;0.00;;;;;;;3.87;79.66;99721.28;5112117;28;20055;-77
2021/11/18 04:21:40;;;;;;;0.40;0.40;;;;;;;3.81;79.41;99713.19;5112310;28;20034;-76
2021/11/18 04:24:08;;;;;;;0.00;0.00;;;;;;;3.82;79.46;99724.56;5112832;28;20118;-77
2021/11/18 04:26:33;;;;;;;0.17;0.17;;;;;;;3.79;79.04;99720.50;5112661;28;20527;-76
2021/11/18 04:28:59;;;;;;;0.00;0.00;;;;;;;3.66;78.97;99716.13;5106969;28;20036;-77
2021/11/18 04:31:26;;;;;;;0.00;0.00;;;;;;;3.68;79.48;99740.53;5113182;28;20046;-73
2021/11/18 04:33:52;;;;;;;0.00;0.00;;;;;;;3.58;79.53;99716.38;5112991;28;20092;-75
2021/11/18 04:36:21;;;;;;;0.00;0.00;;;;;;;3.61;79.35;99737.09;5098016;28;20028;-75
2021/11/18 04:38:52;;;;;;;0.00;0.00;;;;;;;3.57;79.44;99735.91;5112273;28;20024;-78
2021/11/18 04:41:18;;;;;;;0.00;0.00;;;;;;;3.54;79.26;99736.34;5112468;28;20414;-75
2021/11/18 04:43:44;;;;;;;0.00;0.00;;;;;;;3.45;79.08;99721.75;5112655;28;20036;-75
2021/11/18 04:46:10;;;;;;;0.10;0.10;;;;;;;3.50;79.28;99729.84;5113362;28;20058;-75
2021/11/18 04:48:37;;;;;;;0.00;0.00;;;;;;;3.47;79.70;99731.09;5114078;28;20027;-75
2021/11/18 04:51:04;;;;;;;0.28;0.28;;;;;;;3.41;79.33;99725.84;5112351;28;20023;-78
2021/11/18 04:53:30;;;;;;;0.00;0.00;;;;;;;3.38;79.39;99731.56;5112049;28;20532;-74
2021/11/18 04:55:56;;;;;;;0.00;0.00;;;;;;;3.30;79.58;99725.47;5113879;28;20036;-74
2021/11/18 04:58:22;;;;;;;0.00;0.00;;;;;;;3.34;79.88;99745.22;5113935;28;20479;-72
2021/11/18 05:00:54;;;;;;;0.00;0.00;;;;;;;3.26;79.85;99728.75;5113516;28;20059;-75
2021/11/18 05:03:21;;;;;;;0.00;0.00;;;;;;;3.33;79.95;99748.88;5112520;28;20035;-78
2021/11/18 05:05:47;;;;;;;0.00;0.00;;;;;;;3.29;79.92;99745.00;5112399;28;20498;-78
2021/11/18 05:08:13;;;;;;;0.00;0.00;;;;;;;3.29;79.94;99750.28;5111800;28;20058;-79
2021/11/18 05:10:41;;;;;;;0.00;0.00;;;;;;;3.16;80.27;99730.03;5112297;28;20053;-81
2021/11/18 05:13:06;;;;;;;0.00;0.00;;;;;;;3.28;80.44;99753.16;5112051;28;20448;-81
2021/11/18 05:15:36;;;;;;;0.17;0.17;;;;;;;3.31;80.50;99764.13;5111915;28;20083;-85
2021/11/18 05:18:03;;;;;;;0.00;0.00;;;;;;;3.15;80.53;99736.34;5112169;28;20027;-74
2021/11/18 05:20:28;;;;;;;0.00;0.00;;;;;;;3.27;80.43;99755.00;5111986;28;20497;-76
2021/11/18 05:22:55;;;;;;;0.00;0.00;;;;;;;3.23;80.58;99743.22;5112378;28;20039;-77
2021/11/18 05:25:25;;;;;;;0.00;0.00;;;;;;;3.36;80.35;99759.00;5112319;28;20023;-77
2021/11/18 05:27:51;;;;;;;0.00;0.00;;;;;;;3.24;80.70;99733.47;5112337;28;20050;-77
2021/11/18 05:30:16;;;;;;;0.00;0.00;;;;;;;3.38;81.02;99752.69;5111722;28;20470;-77
2021/11/18 05:32:43;;;;;;;0.00;0.00;;;;;;;3.41;80.87;99757.59;5112062;28;20036;-77
2021/11/18 05:35:09;;;;;;;0.00;0.00;;;;;;;3.45;80.90;99759.56;5111154;28;20024;-78
2021/11/18 05:37:34;;;;;;;0.00;0.00;;;;;;;3.43;81.11;99752.88;5114225;28;20391;-82
2021/11/18 05:40:00;;;;;;;0.00;0.00;;;;;;;3.47;80.95;99759.38;5115650;28;20057;-82
2021/11/18 05:42:26;;;;;;;0.00;0.00;;;;;;;3.46;81.10;99755.09;5115780;28;20474;-83
2021/11/18 05:44:52;;;;;;;0.00;0.00;;;;;;;3.55;80.69;99763.59;5111865;28;20118;-81
2021/11/18 05:47:19;;;;;;;0.00;0.00;;;;;;;3.58;80.61;99768.47;5110917;28;20383;-77
2021/11/18 05:49:45;;;;;;;0.00;0.00;;;;;;;3.62;81.17;99761.72;5106397;28;20020;-77
2021/11/18 05:52:11;;;;;;;0.00;0.00;;;;;;;3.64;81.57;99757.84;5091219;28;20032;-78
2021/11/18 05:54:37;;;;;;;0.00;0.00;;;;;;;3.71;81.18;99764.94;5090725;28;20404;-80
2021/11/18 05:57:04;;;;;;;0.00;0.00;;;;;;;3.79;81.75;99769.97;5109671;28;20035;-79
2021/11/18 05:59:30;;;;;;;0.00;0.00;;;;;;;3.79;81.89;99769.97;5111672;28;20032;-75
2021/11/18 06:01:55;;;;;;;0.00;0.00;;;;;;;3.87;81.88;99775.03;5111552;28;20421;-74
2021/11/18 06:04:21;;;;;;;0.00;0.00;;;;;;;3.95;81.49;99781.88;5111343;28;20081;-77
2021/11/18 06:06:46;;;;;;;0.00;0.00;;;;;;;4.04;81.87;99785.06;5111352;28;20028;-74
2021/11/18 06:09:12;;;;;;;0.00;0.00;;;;;;;4.16;81.85;99802.72;5099273;28;20031;-81
2021/11/18 06:11:40;;;;;;;0.00;0.00;;;;;;;4.25;81.47;99792.66;5091266;28;20032;-76
2021/11/18 06:14:06;;;;;;;0.00;0.00;;;;;;;4.39;81.19;99803.94;5102142;28;20037;-83
2021/11/18 06:16:33;;;;;;;0.00;0.00;;;;;;;4.43;81.13;99783.13;5111346;28;20024;-80
2021/11/18 06:19:01;;;;;;;0.00;0.00;;;;;;;4.57;80.38;99797.09;5111014;28;20026;-77
2021/11/18 06:21:28;;;;;;;0.00;0.00;;;;;;;4.70;80.22;99801.44;5111187;28;20077;-77
2021/11/18 06:23:53;;;;;;;0.00;0.00;;;;;;;4.77;79.73;99802.19;5111054;28;20039;-77
2021/11/18 06:26:19;;;;;;;0.05;0.05;;;;;;;4.82;79.21;99805.00;5108816;28;20027;-74
2021/11/18 06:28:45;;;;;;;0.00;0.00;;;;;;;4.88;79.38;99808.63;5091777;28;20103;-78
2021/11/18 06:31:13;;;;;;;0.00;0.00;;;;;;;4.93;79.01;99809.59;5090133;28;20024;-80
2021/11/18 06:33:40;;;;;;;0.00;0.00;;;;;;;4.93;79.04;99799.00;5090696;28;20036;-76
2021/11/18 06:36:07;;;;;;;0.00;0.00;;;;;;;5.00;78.79;99801.56;5091567;28;20035;-75
2021/11/18 06:38:33;;;;;;;0.65;0.65;;;;;;;5.05;79.37;99800.91;5095927;28;20115;-80
2021/11/18 06:40:59;;;;;;;0.00;0.00;;;;;;;5.15;79.29;99800.38;5099310;28;20038;-79
2021/11/18 06:43:25;;;;;;;0.10;0.10;;;;;;;5.15;79.24;99790.59;5105300;28;20016;-77
2021/11/18 06:45:51;;;;;;;0.00;0.00;;;;;;;5.22;80.27;99793.97;5110304;28;20081;-75
2021/11/18 06:48:19;;;;;;;0.08;0.08;;;;;;;5.31;79.97;99801.63;5111655;28;20070;-76
2021/11/18 06:50:46;;;;;;;0.00;0.00;;;;;;;5.38;79.78;99805.00;5110596;28;20130;-78
2021/11/18 06:53:12;;;;;;;0.00;0.00;;;;;;;5.43;79.95;99795.38;5110374;28;20024;-86
2021/11/18 06:55:38;;;;;;;0.00;0.00;;;;;;;5.47;79.85;99803.69;5111150;28;20558;-83
2021/11/18 06:58:04;;;;;;;0.00;0.00;;;;;;;5.49;79.75;99804.25;5111202;28;20031;-81
2021/11/18 07:00:31;;;;;;;0.00;0.00;;;;;;;5.66;79.46;99814.25;5110224;28;20502;-82
2021/11/18 07:02:56;;;;;;;0.03;0.03;;;;;;;5.69;79.81;99808.50;5110494;28;20027;-84
2021/11/18 07:05:23;;;;;;;0.10;0.10;;;;;;;5.80;79.57;99817.53;5110499;28;20038;-82
2021/11/18 07:07:49;;;;;;;0.50;0.50;;;;;;;5.87;80.13;99808.47;5110191;28;20115;-85
2021/11/18 07:10:15;;;;;;;0.05;0.05;;;;;;;5.97;80.50;99801.78;5110394;28;20031;-85
2021/11/18 07:12:41;;;;;;;0.00;0.00;;;;;;;6.06;80.24;99805.78;5110635;28;20023;-85
2021/11/18 07:15:10;;;;;;;0.00;0.00;;;;;;;6.15;80.12;99806.25;5112283;28;20039;-85
2021/11/18 07:17:35;;;;;;;0.00;0.00;;;;;;;6.29;81.14;99805.00;5111864;28;20031;-83
2021/11/18 07:20:03;;;;;;;0.00;0.00;;;;;;;6.35;80.31;99793.47;5110242;28;20050;-82
2021/11/18 07:22:30;;;;;;;0.00;0.00;;;;;;;6.50;80.65;99800.97;5110629;28;20088;-81
2021/11/18 07:24:57;;;;;;;0.00;0.00;;;;;;;6.64;80.37;99804.25;5110420;28;20032;-80
2021/11/18 07:27:23;;;;;;;0.00;0.00;;;;;;;6.73;79.91;99800.19;5110117;28;20084;-82
2021/11/18 07:29:49;;;;;;;0.00;0.00;;;;;;;6.88;79.83;99806.88;5110204;28;20032;-79
2021/11/18 07:32:14;;;;;;;0.00;0.00;;;;;;;7.01;79.22;99809.28;5110464;28;20053;-79
2021/11/18 07:34:40;;;;;;;0.00;0.00;;;;;;;7.05;78.34;99796.34;5110429;28;20055;-79
2021/11/18 07:37:06;;;;;;;0.00;0.00;;;;;;;7.20;78.41;99798.50;5109505;28;20023;-78
2021/11/18 07:39:31;;;;;;;0.00;0.00;;;;;;;7.30;77.80;99795.25;5109264;28;20065;-74
2021/11/18 07:41:57;;;;;;;0.00;0.00;;;;;;;7.40;77.82;99797.28;5109829;28;20035;-77
2021/11/18 07:44:22;;;;;;;0.00;0.00;;;;;;;7.47;77.54;99792.63;5109633;28;20046;-78
2021/11/18 07:46:48;;;;;;;0.65;0.65;;;;;;;7.55;77.09;99794.13;5107800;28;20044;-77
2021/11/18 07:49:14;;;;;;;0.03;0.03;;;;;;;7.65;77.00;99786.34;5107339;28;20027;-76
2021/11/18 07:51:40;;;;;;;0.00;0.00;;;;;;;7.74;76.66;99790.25;5109037;28;20118;-75
2021/11/18 07:54:08;;;;;;;0.10;0.10;;;;;;;7.82;76.38;99789.84;5109211;28;20027;-84
2021/11/18 07:56:34;;;;;;;0.10;0.10;;;;;;;7.88;76.65;99788.06;5107983;28;20042;-79
2021/11/18 07:59:00;;;;;;;0.65;0.45;;;;;;;7.98;76.46;99784.78;5089293;28;20024;-78
2021/11/18 08:01:26;;;;;;;0.00;0.00;;;;;;;8.01;76.73;99778.97;5098624;28;20031;-76
2021/11/18 08:03:52;;;;;;;1.17;1.10;;;;;;;8.12;76.10;99786.09;5109041;28;20027;-77
2021/11/18 08:06:24;;;;;;;0.10;0.10;;;;;;;8.15;75.54;99774.97;5109548;28;20028;-78
2021/11/18 08:08:51;;;;;;;0.08;0.08;;;;;;;8.30;74.82;99779.72;5109298;28;20474;-77
2021/11/18 08:11:20;;;;;;;0.32;0.32;;;;;;;8.39;74.88;99787.31;5109430;28;20081;-76
2021/11/18 08:13:46;;;;;;;0.00;0.00;;;;;;;8.54;74.58;99794.75;5110092;28;20020;-86
2021/11/18 08:16:12;;;;;;;0.00;0.00;;;;;;;8.61;73.58;99788.19;5111750;28;20059;-83
2021/11/18 08:18:38;;;;;;;0.00;0.00;;;;;;;8.72;73.21;99783.03;5113187;28;20028;-85
2021/11/18 08:21:04;;;;;;;0.00;0.00;;;;;;;8.79;72.97;99781.00;5112892;28;20071;-80
2021/11/18 08:23:33;;;;;;;0.00;0.00;;;;;;;8.90;71.79;99789.91;5096703;28;20016;-81
2021/11/18 08:26:05;;;;;;;0.00;0.00;;;;;;;8.95;71.34;99779.34;5092798;28;20043;-81
2021/11/18 08:28:31;;;;;;;0.00;0.00;;;;;;;9.08;71.30;99788.84;5092898;28;20035;-76
2021/11/18 08:30:57;;;;;;;0.00;0.00;;;;;;;9.14;70.55;99787.84;5094368;28;20443;-77
2021/11/18 08:33:22;;;;;;;0.47;0.47;;;;;;;9.27;70.90;99787.47;5092419;28;20119;-75
2021/11/18 08:35:49;;;;;;;0.10;0.10;;;;;;;9.41;69.84;99787.91;5096605;28;20061;-82
2021/11/18 08:38:18;;;;;;;0.00;0.00;;;;;;;9.55;68.41;99790.19;5114700;28;20052;-84
2021/11/18 08:40:53;;;;;;;0.00;0.00;;;;;;;9.64;68.36;99791.34;5113298;28;20035;-89
2021/11/18 08:43:20;;;;;;;0.00;0.00;;;;;;;9.77;69.40;99788.28;5108503;28;20038;-80
2021/11/18 08:45:46;;;;;;;0.20;0.20;;;;;;;9.87;67.10;99782.22;5110720;28;20039;-76
2021/11/18 08:48:12;;;;;;;0.00;0.00;;;;;;;10.00;65.48;99789.03;5112477;28;20471;-76
2021/11/18 08:50:40;;;;;;;0.00;0.00;;;;;;;10.14;64.99;99785.94;5112301;28;20031;-73
2021/11/18 08:53:06;;;;;;;0.00;0.00;;;;;;;10.20;63.03;99776.91;5111618;28;20032;-76
2021/11/18 08:55:35;;;;;;;0.00;0.00;;;;;;;10.23;63.19;99765.72;5112170;28;20038;-76
2021/11/18 08:58:01;;;;;;;0.00;0.00;;;;;;;10.34;62.81;99770.06;5112417;28;20471;-77
2021/11/18 09:00:32;;;;;;;0.00;0.00;;;;;;;10.52;62.24;99778.75;5112683;28;20028;-75
2021/11/18 09:02:57;;;;;;;0.00;0.00;;;;;;;10.57;62.12;99776.16;5112406;28;20096;-76
2021/11/18 09:05:25;;;;;;;0.00;0.00;;;;;;;10.61;60.58;99765.72;5110842;28;20506;-75
2021/11/18 09:07:50;;;;;;;0.00;0.00;;;;;;;10.70;60.14;99772.97;5111886;28;20059;-76
2021/11/18 09:10:17;;;;;;;0.10;0.10;;;;;;;10.75;59.69;99771.41;5112460;28;20059;-76
2021/11/18 09:12:44;;;;;;;0.40;0.40;;;;;;;10.79;59.67;99767.16;5113259;28;20051;-75
2021/11/18 09:15:12;;;;;;;0.00;0.00;;;;;;;10.83;59.30;99768.25;5112071;28;20085;-75
2021/11/18 09:17:38;;;;;;;0.00;0.00;;;;;;;10.86;59.80;99762.38;5112345;28;20027;-76
2021/11/18 09:20:07;;;;;;;0.10;0.10;;;;;;;10.95;58.88;99778.72;5111858;28;20035;-76
2021/11/18 09:22:33;;;;;;;0.00;0.00;;;;;;;11.03;59.22;99765.69;5112315;28;20027;-76
2021/11/18 09:25:00;;;;;;;0.00;0.00;;;;;;;11.10;59.05;99757.41;5112840;28;20028;-76
2021/11/18 09:27:34;;;;;;;0.00;0.00;;;;;;;11.14;58.59;99760.38;5111696;28;20054;-76
2021/11/18 09:30:02;;;;;;;0.00;0.00;;;;;;;11.17;59.05;99754.50;5110628;28;20024;-76
2021/11/18 09:32:30;;;;;;;0.15;0.15;;;;;;;11.17;59.30;99755.28;5112113;28;20118;-75
2021/11/18 09:34:57;;;;;;;0.10;0.10;;;;;;;11.25;58.59;99753.97;5111744;28;20108;-76
2021/11/18 09:37:23;;;;;;;0.55;0.55;;;;;;;11.29;57.92;99749.72;5113233;28;20031;-75
2021/11/18 09:39:49;;;;;;;0.00;0.00;;;;;;;11.21;58.00;99729.59;5111823;28;20023;-76
2021/11/18 09:42:19;;;;;;;0.00;0.00;;;;;;;11.26;57.36;99749.44;5111630;28;20398;-77
2021/11/18 09:45:04;;;;;;;0.00;0.00;;;;;;;11.29;56.66;99741.69;5111570;28;20066;-77
2021/11/18 09:47:42;;;;;;;0.00;0.00;;;;;;;11.29;57.65;99735.50;5111775;28;20068;-77
2021/11/18 09:50:16;;;;;;;0.33;0.33;;;;;;;11.20;57.58;99724.50;5111313;28;20023;-76
2021/11/18 09:53:21;;;;;;;0.22;0.22;;;;;;;11.30;56.88;99742.47;5111594;28;20293;-76
2021/11/18 09:55:55;;;;;;;0.00;0.00;;;;;;;11.23;57.13;99737.38;5111468;28;20090;-76
2021/11/18 09:58:55;;;;;;;0.05;0.05;;;;;;;11.33;57.52;99742.75;5111430;28;20028;-76
2021/11/18 10:02:06;;;;;;;0.00;0.00;;;;;;;11.32;58.26;99735.78;5110912;28;20387;-77
2021/11/18 10:04:37;;;;;;;0.00;0.00;;;;;;;11.42;57.87;99736.88;5056076;28;20088;-77
2021/11/18 10:07:12;;;;;;;0.00;0.00;;;;;;;11.43;57.38;99743.88;5112817;28;20285;-76
2021/11/18 10:10:06;;;;;;;0.00;0.00;;;;;;;11.47;57.24;99736.91;5111161;28;20042;-76
2021/11/18 10:12:53;;;;;;;0.10;0.10;;;;;;;11.52;57.88;99723.50;5096654;28;20070;-75
2021/11/18 10:15:24;;;;;;;0.00;0.00;;;;;;;11.53;57.71;99725.94;5111959;28;20059;-75
2021/11/18 10:17:59;;;;;;;0.00;0.00;;;;;;;11.57;57.48;99728.06;5112179;28;20110;-75
2021/11/18 10:20:29;;;;;;;0.10;0.10;;;;;;;11.58;57.35;99716.28;5112461;28;20035;-76
2021/11/18 10:23:03;;;;;;;0.40;0.40;;;;;;;11.59;56.13;99712.56;5110400;28;20490;-75
2021/11/18 10:25:42;;;;;;;0.10;0.10;;;;;;;11.64;56.89;99709.88;5111811;27;20055;-76
2021/11/18 10:28:19;;;;;;;0.38;0.38;;;;;;;11.71;56.27;99720.34;5111809;28;20125;-75
2021/11/18 10:31:08;;;;;;;0.00;0.00;;;;;;;11.68;56.08;99714.44;5110765;28;20460;-76
2021/11/18 10:33:48;;;;;;;0.00;0.00;;;;;;;11.72;56.26;99708.53;5110103;28;20371;-75
2021/11/18 10:36:20;;;;;;;1.15;0.25;;;;;;;11.65;56.37;99698.88;5111840;28;20110;-75
2021/11/18 10:39:07;;;;;;;0.20;0.20;;;;;;;11.74;56.54;99703.72;5110532;28;20592;-75
2021/11/18 10:41:33;;;;;;;0.03;0.03;;;;;;;11.75;56.98;99698.09;5105975;28;20035;-75
2021/11/18 10:44:17;;;;;;;0.10;0.10;;;;;;;11.80;56.82;99708.00;5109731;28;20505;-74
2021/11/18 10:47:14;;;;;;;0.00;0.00;;;;;;;11.78;56.77;99697.56;5102605;28;20050;-74
2021/11/18 10:49:54;;;;;;;0.00;0.00;;;;;;;11.72;56.59;99684.41;5068838;28;20043;-74
2021/11/18 10:52:29;;;;;;;0.00;0.00;;;;;;;11.77;56.06;99701.31;5111709;28;20554;-74
2021/11/18 10:55:04;;;;;;;0.00;0.00;;;;;;;11.70;56.53;99682.00;5111729;28;20059;-75
2021/11/18 10:57:32;;;;;;;0.20;0.20;;;;;;;11.79;56.84;99695.66;5110238;28;20027;-74
2021/11/18 11:00:16;;;;;;;0.07;0.07;;;;;;;11.82;56.81;99695.16;5111326;28;20024;-75
2021/11/18 11:02:42;;;;;;;0.00;0.00;;;;;;;11.81;56.86;99693.53;5111843;28;20019;-75
2021/11/18 11:05:26;;;;;;;0.00;0.00;;;;;;;11.80;56.42;99682.03;5111203;28;20020;-74
2021/11/18 11:07:52;;;;;;;0.00;0.00;;;;;;;11.78;56.60;99681.47;5110005;28;20019;-74
2021/11/18 11:10:23;;;;;;;0.00;0.00;;;;;;;11.74;56.80;99666.19;5111419;28;20392;-74
2021/11/18 11:12:58;;;;;;;0.00;0.00;;;;;;;11.80;56.65;99667.81;5108513;28;20482;-74
2021/11/18 11:15:29;;;;;;;0.00;0.00;;;;;;;11.78;56.80;99661.91;5109701;28;20626;-74
2021/11/18 11:18:09;;;;;;;0.00;0.00;;;;;;;11.82;56.88;99665.66;5110202;28;20051;-74
2021/11/18 11:21:03;;;;;;;0.00;0.00;;;;;;;11.77;56.61;99654.97;5109939;28;20042;-74
2021/11/18 11:23:34;;;;;;;0.00;0.00;;;;;;;11.80;56.62;99652.53;5109862;28;20104;-75
2021/11/18 11:26:26;;;;;;;0.10;0.10;;;;;;;11.85;57.18;99652.53;5109288;28;20035;-75
2021/11/18 11:29:24;;;;;;;0.00;0.00;;;;;;;11.88;56.57;99642.34;5089742;28;20487;-75
2021/11/18 11:32:17;;;;;;;0.30;0.30;;;;;;;11.93;56.48;99648.50;5045506;28;20126;-74
2021/11/18 11:34:58;;;;;;;0.00;0.00;;;;;;;11.89;56.86;99628.69;5094583;28;20024;-75
2021/11/18 11:37:51;;;;;;;0.00;0.00;;;;;;;12.03;57.22;99636.19;5110689;28;20067;-75
2021/11/18 11:40:49;;;;;;;0.28;0.28;;;;;;;12.11;56.67;99632.97;5089550;28;20035;-74
2021/11/18 11:43:20;;;;;;;0.00;0.00;;;;;;;12.05;56.03;99616.09;5071595;28;20047;-74
2021/11/18 11:45:55;;;;;;;0.00;0.00;;;;;;;12.16;55.75;99622.22;5109460;28;20054;-74
2021/11/18 11:48:34;;;;;;;0.00;0.00;;;;;;;12.22;55.27;99625.69;5109444;28;20430;-76